createdAt,value
2017-08-10T00:00:44.459Z,91.70
2017-08-10T00:03:13.079Z,93.30
2017-08-10T00:05:40.888Z,93.20
2017-08-10T00:08:08.683Z,92.70
2017-08-10T00:10:36.534Z,92.50
2017-08-10T00:13:05.099Z,91.80
2017-08-10T00:15:32.965Z,91.70
2017-08-10T00:18:01.550Z,90.20
2017-08-10T00:20:29.374Z,90.20
2017-08-10T00:22:57.219Z,90.00
2017-08-10T00:25:25.024Z,89.30
2017-08-10T00:27:52.875Z,89.20
2017-08-10T00:30:20.694Z,89.00
2017-08-10T00:32:48.493Z,89.60
2017-08-10T00:35:16.327Z,89.20
2017-08-10T00:37:44.139Z,89.60
2017-08-10T00:40:12.011Z,90.20
2017-08-10T00:42:40.579Z,90.20
2017-08-10T00:45:08.384Z,90.20
2017-08-10T00:47:36.222Z,90.20
2017-08-10T00:50:04.792Z,90.10
2017-08-10T00:52:32.655Z,90.00
2017-08-10T00:55:00.470Z,90.00
2017-08-10T00:57:28.268Z,89.60
2017-08-10T00:59:56.103Z,89.60
2017-08-10T01:02:23.914Z,90.00
2017-08-10T01:04:52.547Z,90.10
2017-08-10T01:07:20.351Z,90.10
2017-08-10T01:09:48.160Z,90.20
2017-08-10T01:12:16.002Z,90.40
2017-08-10T01:14:43.812Z,90.50
2017-08-10T01:17:11.675Z,90.60
2017-08-10T01:19:39.496Z,90.60
2017-08-10T01:22:07.314Z,90.60
2017-08-10T01:24:35.154Z,90.60
2017-08-10T01:27:02.973Z,90.70
2017-08-10T01:29:30.843Z,90.80
2017-08-10T01:31:59.419Z,91.00
2017-08-10T01:34:28.015Z,91.00
2017-08-10T01:36:55.855Z,91.00
2017-08-10T01:39:24.456Z,91.10
2017-08-10T01:41:52.278Z,91.10
2017-08-10T01:44:20.120Z,91.10
2017-08-10T01:46:47.963Z,91.20
2017-08-10T01:49:15.775Z,91.30
2017-08-10T01:51:43.635Z,91.30
2017-08-10T01:54:11.454Z,91.40
2017-08-10T01:56:39.317Z,91.40
2017-08-10T01:59:07.231Z,91.20
2017-08-10T02:01:35.067Z,91.10
2017-08-10T02:04:02.905Z,91.10
2017-08-10T02:06:30.761Z,91.20
2017-08-10T02:08:58.607Z,91.00
2017-08-10T02:11:26.420Z,91.00
2017-08-10T02:13:54.255Z,91.10
2017-08-10T02:16:22.061Z,91.20
2017-08-10T02:18:49.866Z,91.20
2017-08-10T02:21:17.695Z,91.50
2017-08-10T02:23:45.487Z,92.50
2017-08-10T02:26:13.293Z,95.10
2017-08-10T02:28:41.137Z,95.60
2017-08-10T02:31:08.944Z,97.20
2017-08-10T02:33:36.867Z,97.50
2017-08-10T02:36:04.706Z,98.20
2017-08-10T02:38:32.513Z,98.90
2017-08-10T02:41:00.325Z,99.90
2017-08-10T02:43:28.920Z,99.90
2017-08-10T02:45:56.727Z,99.90
2017-08-10T02:48:24.588Z,99.90
2017-08-10T02:50:52.391Z,99.90
2017-08-10T02:53:20.957Z,99.90
2017-08-10T02:55:48.791Z,99.90
2017-08-10T02:58:16.623Z,99.90
2017-08-10T03:00:44.475Z,99.90
2017-08-10T03:03:12.276Z,99.90
2017-08-10T03:05:40.098Z,99.90
2017-08-10T03:08:07.941Z,99.90
2017-08-10T03:10:36.535Z,99.90
2017-08-10T03:13:05.199Z,99.90
2017-08-10T03:15:32.996Z,99.90
2017-08-10T03:18:00.798Z,99.90
2017-08-10T03:20:28.622Z,99.90
2017-08-10T03:22:56.428Z,99.90
2017-08-10T03:25:24.282Z,99.90
2017-08-10T03:27:52.100Z,99.90
2017-08-10T03:30:19.926Z,99.90
2017-08-10T03:32:47.779Z,99.90
2017-08-10T03:35:15.574Z,99.90
2017-08-10T03:37:44.191Z,99.90
2017-08-10T03:40:11.991Z,99.90
2017-08-10T03:42:39.788Z,99.90
2017-08-10T03:45:07.637Z,99.90
2017-08-10T03:47:36.200Z,99.90
2017-08-10T03:50:04.085Z,99.90
2017-08-10T03:52:32.664Z,99.90
2017-08-10T03:55:01.235Z,99.90
2017-08-10T03:57:29.069Z,99.90
2017-08-10T03:59:56.915Z,99.90
2017-08-10T04:02:24.811Z,99.90
2017-08-10T04:04:52.606Z,99.90
2017-08-10T04:07:21.176Z,99.90
2017-08-10T04:09:49.005Z,99.90
2017-08-10T04:12:16.816Z,99.90
2017-08-10T04:14:45.439Z,99.90
2017-08-10T04:17:13.286Z,99.90
2017-08-10T04:19:41.095Z,99.90
2017-08-10T04:22:08.949Z,99.90
2017-08-10T04:24:36.751Z,99.90
2017-08-10T04:27:05.388Z,99.90
2017-08-10T04:29:33.199Z,99.90
2017-08-10T04:32:00.992Z,99.90
2017-08-10T04:34:28.835Z,99.90
2017-08-10T04:36:56.639Z,99.90
2017-08-10T04:39:24.492Z,99.90
2017-08-10T04:41:52.283Z,99.90
2017-08-10T04:44:20.920Z,99.90
2017-08-10T04:46:48.802Z,99.90
2017-08-10T04:49:16.605Z,99.90
2017-08-10T04:51:45.229Z,99.90
2017-08-10T04:54:13.031Z,99.90
2017-08-10T04:56:40.837Z,99.90
2017-08-10T04:59:08.665Z,99.90
2017-08-10T05:01:36.468Z,99.90
2017-08-10T05:04:04.357Z,99.90
2017-08-10T05:06:32.160Z,99.90
2017-08-10T05:08:59.956Z,99.90
2017-08-10T05:11:34.800Z,99.90
2017-08-10T05:14:02.616Z,99.90
2017-08-10T05:16:31.241Z,98.10
2017-08-10T05:18:59.077Z,98.10
2017-08-10T05:21:26.940Z,97.60
2017-08-10T05:23:54.735Z,98.30
2017-08-10T05:26:22.552Z,98.30
2017-08-10T05:28:50.376Z,98.70
2017-08-10T05:31:18.178Z,98.20
2017-08-10T05:33:46.835Z,98.50
2017-08-10T05:36:14.676Z,98.10
2017-08-10T05:38:42.480Z,97.30
2017-08-10T05:41:11.163Z,94.90
2017-08-10T05:43:39.001Z,94.60
2017-08-10T05:46:06.887Z,93.60
2017-08-10T05:48:34.704Z,92.50
2017-08-10T05:51:02.507Z,88.80
2017-08-10T05:53:30.387Z,79.40
2017-08-10T05:55:59.067Z,64.00
2017-08-10T05:58:27.720Z,56.40
2017-08-10T06:00:55.567Z,56.30
2017-08-10T06:03:23.431Z,47.80
2017-08-10T06:05:51.296Z,39.80
2017-08-10T06:08:19.134Z,37.60
2017-08-10T06:10:47.068Z,38.00
2017-08-10T06:13:14.910Z,37.70
2017-08-10T06:15:42.742Z,39.20
2017-08-10T06:18:10.650Z,37.60
2017-08-10T06:20:38.525Z,37.70
2017-08-10T06:23:07.184Z,38.40
2017-08-10T06:25:35.011Z,38.30
2017-08-10T06:28:02.844Z,35.40
2017-08-10T06:30:30.724Z,34.90
2017-08-10T06:32:58.564Z,31.50
2017-08-10T06:35:27.208Z,28.70
2017-08-10T06:37:55.055Z,28.70
2017-08-10T06:40:22.946Z,28.00
2017-08-10T06:42:50.784Z,26.70
2017-08-10T06:45:18.612Z,26.30
2017-08-10T06:47:46.471Z,26.30
2017-08-10T06:50:14.312Z,25.20
2017-08-10T06:52:42.197Z,27.00
2017-08-10T06:55:10.791Z,23.80
2017-08-10T06:57:39.385Z,22.10
2017-08-10T07:00:07.249Z,22.10
2017-08-10T07:02:35.076Z,22.00
2017-08-10T07:05:02.966Z,21.30
2017-08-10T07:07:30.793Z,22.50
2017-08-10T07:09:58.620Z,22.90
2017-08-10T07:12:26.481Z,22.90
2017-08-10T07:14:54.308Z,23.10
2017-08-10T07:17:22.199Z,22.80
2017-08-10T07:19:50.043Z,21.80
2017-08-10T07:22:17.868Z,21.10
2017-08-10T07:24:45.732Z,20.00
2017-08-10T07:27:13.579Z,19.90
2017-08-10T07:29:41.467Z,20.60
2017-08-10T07:32:09.310Z,21.60
2017-08-10T07:34:37.155Z,20.40
2017-08-10T07:37:05.021Z,19.80
2017-08-10T07:39:32.843Z,18.60
2017-08-10T07:42:00.735Z,18.40
2017-08-10T07:44:28.560Z,18.10
2017-08-10T07:46:57.155Z,19.80
2017-08-10T07:49:25.027Z,19.80
2017-08-10T07:51:52.867Z,22.50
2017-08-10T07:54:21.519Z,24.30
2017-08-10T07:56:49.351Z,24.20
2017-08-10T07:59:17.171Z,22.60
2017-08-10T08:01:45.792Z,24.80
2017-08-10T08:04:13.628Z,24.70
2017-08-10T08:06:42.278Z,26.70
2017-08-10T08:09:10.112Z,26.70
2017-08-10T08:11:37.959Z,26.20
2017-08-10T08:14:05.836Z,27.40
2017-08-10T08:16:39.540Z,29.40
2017-08-10T08:19:07.427Z,30.60
2017-08-10T08:21:35.259Z,28.90
2017-08-10T08:24:03.107Z,29.80
2017-08-10T08:26:30.996Z,30.70
2017-08-10T08:28:58.850Z,31.20
2017-08-10T08:31:26.775Z,34.00
2017-08-10T08:33:54.623Z,37.60
2017-08-10T08:36:22.470Z,39.30
2017-08-10T08:38:50.339Z,38.20
2017-08-10T08:41:18.171Z,34.10
2017-08-10T08:43:46.076Z,28.90
2017-08-10T08:46:13.930Z,26.80
2017-08-10T08:48:41.754Z,26.30
2017-08-10T08:51:09.635Z,24.00
2017-08-10T08:53:37.453Z,22.00
2017-08-10T08:56:06.097Z,20.30
2017-08-10T08:58:33.922Z,20.30
2017-08-10T09:01:01.775Z,21.40
2017-08-10T09:03:29.652Z,22.80
2017-08-10T09:05:57.483Z,22.70
2017-08-10T09:08:26.151Z,23.50
2017-08-10T09:10:53.983Z,23.50
2017-08-10T09:13:21.887Z,24.30
2017-08-10T09:15:49.759Z,24.50
2017-08-10T09:18:18.364Z,23.60
2017-08-10T09:20:46.273Z,23.60
2017-08-10T09:23:14.105Z,23.00
2017-08-10T09:25:41.943Z,22.80
2017-08-10T09:28:09.808Z,23.40
2017-08-10T09:30:37.683Z,22.90
2017-08-10T09:33:05.635Z,25.30
2017-08-10T09:35:33.492Z,27.10
2017-08-10T09:38:02.103Z,30.70
2017-08-10T09:40:30.022Z,30.70
2017-08-10T09:42:58.623Z,31.50
2017-08-10T09:45:26.655Z,32.00
2017-08-10T09:47:54.493Z,32.50
2017-08-10T09:50:22.388Z,33.70
2017-08-10T09:52:50.256Z,34.60
2017-08-10T09:55:18.129Z,35.30
2017-08-10T09:57:46.792Z,37.30
2017-08-10T10:00:14.658Z,37.30
2017-08-10T10:02:42.500Z,37.90
2017-08-10T10:05:10.378Z,39.50
2017-08-10T10:07:38.216Z,39.30
2017-08-10T10:10:06.126Z,40.80
2017-08-10T10:12:33.979Z,41.40
2017-08-10T10:15:01.807Z,41.00
2017-08-10T10:17:29.691Z,42.50
2017-08-10T10:19:57.533Z,44.80
2017-08-10T10:22:25.428Z,45.40
2017-08-10T10:24:53.282Z,47.30
2017-08-10T10:27:21.130Z,46.30
2017-08-10T10:29:49.003Z,45.60
2017-08-10T10:32:16.862Z,45.80
2017-08-10T10:34:44.800Z,47.20
2017-08-10T10:37:12.645Z,48.00
2017-08-10T10:39:41.254Z,51.80
2017-08-10T10:42:09.128Z,51.80
2017-08-10T10:44:36.959Z,51.50
2017-08-10T10:47:05.609Z,49.50
2017-08-10T10:49:33.465Z,49.50
2017-08-10T10:52:01.303Z,50.50
2017-08-10T10:54:29.180Z,51.40
2017-08-10T10:56:57.022Z,51.70
2017-08-10T10:59:24.920Z,50.80
2017-08-10T11:01:52.763Z,50.80
2017-08-10T11:04:20.606Z,49.00
2017-08-10T11:06:48.466Z,48.50
2017-08-10T11:09:16.304Z,49.40
2017-08-10T11:11:44.968Z,52.10
2017-08-10T11:14:12.817Z,52.10
2017-08-10T11:16:40.653Z,51.80
2017-08-10T11:19:08.523Z,53.90
2017-08-10T11:21:36.380Z,53.30
2017-08-10T11:24:04.298Z,52.30
2017-08-10T11:26:32.938Z,53.90
2017-08-10T11:29:00.796Z,53.80
2017-08-10T11:31:28.666Z,53.00
2017-08-10T11:33:56.507Z,52.50
2017-08-10T11:36:24.429Z,52.00
2017-08-10T11:38:52.247Z,52.00
2017-08-10T11:41:20.096Z,51.80
2017-08-10T11:43:47.955Z,53.30
2017-08-10T11:46:15.868Z,54.00
2017-08-10T11:48:44.029Z,54.00
2017-08-10T11:51:11.871Z,53.60
2017-08-10T11:53:39.720Z,54.50
2017-08-10T11:56:07.586Z,55.30
2017-08-10T11:58:35.431Z,54.50
2017-08-10T12:01:04.103Z,54.90
2017-08-10T12:03:32.704Z,54.40
2017-08-10T12:06:00.540Z,54.40
2017-08-10T12:08:28.411Z,56.70
2017-08-10T12:10:57.016Z,57.10
2017-08-10T12:13:24.920Z,57.10
2017-08-10T12:15:52.750Z,56.30
2017-08-10T12:18:20.593Z,54.50
2017-08-10T12:20:49.237Z,54.00
2017-08-10T12:23:17.079Z,53.90
2017-08-10T12:25:44.970Z,54.70
2017-08-10T12:28:12.783Z,56.40
2017-08-10T12:30:40.598Z,55.90
2017-08-10T12:33:08.455Z,57.00
2017-08-10T12:35:36.264Z,58.60
2017-08-10T12:38:04.159Z,60.60
2017-08-10T12:40:32.008Z,59.20
2017-08-10T12:42:59.824Z,59.60
2017-08-10T12:45:27.656Z,62.60
2017-08-10T12:47:55.513Z,61.80
2017-08-10T12:50:23.382Z,64.60
2017-08-10T12:52:51.199Z,62.10
2017-08-10T12:55:19.764Z,68.90
2017-08-10T12:57:47.590Z,68.90
2017-08-10T13:00:15.412Z,70.90
2017-08-10T13:02:44.112Z,67.30
2017-08-10T13:05:11.921Z,67.30
2017-08-10T13:07:39.730Z,67.50
2017-08-10T13:10:07.564Z,67.40
2017-08-10T13:12:35.374Z,66.00
2017-08-10T13:15:03.283Z,65.40
2017-08-10T13:17:31.080Z,66.40
2017-08-10T13:19:58.895Z,64.70
2017-08-10T13:22:26.738Z,65.00
2017-08-10T13:24:54.538Z,63.20
2017-08-10T13:27:22.396Z,61.90
2017-08-10T13:29:50.200Z,60.30
2017-08-10T13:32:18.000Z,59.90
2017-08-10T13:34:45.844Z,59.30
2017-08-10T13:37:13.651Z,59.20
2017-08-10T13:39:41.491Z,58.80
2017-08-10T13:42:09.302Z,59.10
2017-08-10T13:44:37.184Z,61.60
2017-08-10T13:47:05.063Z,63.30
2017-08-10T13:49:33.165Z,64.10
2017-08-10T13:52:01.005Z,62.70
2017-08-10T13:54:28.806Z,61.10
2017-08-10T13:56:56.633Z,59.70
2017-08-10T13:59:24.457Z,60.20
2017-08-10T14:01:52.321Z,59.30
2017-08-10T14:04:20.124Z,59.60
2017-08-10T14:06:47.948Z,63.00
2017-08-10T14:09:15.819Z,62.70
2017-08-10T14:11:43.630Z,62.10
2017-08-10T14:14:11.531Z,62.20
2017-08-10T14:16:40.117Z,65.70
2017-08-10T14:19:07.944Z,65.70
2017-08-10T14:21:35.793Z,67.10
2017-08-10T14:24:03.619Z,67.80
2017-08-10T14:26:31.484Z,66.20
2017-08-10T14:28:59.300Z,67.60
2017-08-10T14:31:27.119Z,68.20
2017-08-10T14:33:54.965Z,67.50
2017-08-10T14:36:22.776Z,67.20
2017-08-10T14:38:50.628Z,66.60
2017-08-10T14:41:18.443Z,67.00
2017-08-10T14:43:47.028Z,68.60
2017-08-10T14:46:14.868Z,68.60
2017-08-10T14:48:42.681Z,68.00
2017-08-10T14:51:10.569Z,69.50
2017-08-10T14:53:38.372Z,70.50
2017-08-10T14:56:06.944Z,71.40
2017-08-10T14:58:35.552Z,70.50
2017-08-10T15:01:03.368Z,70.20
2017-08-10T15:03:31.245Z,70.90
2017-08-10T15:05:59.060Z,69.70
2017-08-10T15:08:26.887Z,70.90
2017-08-10T15:10:54.729Z,71.80
2017-08-10T15:13:22.550Z,72.60
2017-08-10T15:15:50.519Z,71.10
2017-08-10T15:18:18.394Z,71.10
2017-08-10T15:20:46.258Z,69.80
2017-08-10T15:23:14.104Z,70.20
2017-08-10T15:25:41.915Z,70.30
2017-08-10T15:28:09.902Z,69.10
2017-08-10T15:30:38.470Z,69.50
2017-08-10T15:33:07.064Z,67.60
2017-08-10T15:35:35.707Z,67.70
2017-08-10T15:38:03.569Z,67.60
2017-08-10T15:40:31.436Z,67.40
2017-08-10T15:42:59.229Z,67.60
2017-08-10T15:45:27.783Z,67.20
2017-08-10T15:47:55.691Z,67.20
2017-08-10T15:50:23.506Z,64.60
2017-08-10T15:52:51.384Z,66.00
2017-08-10T15:55:19.201Z,66.50
2017-08-10T15:57:46.992Z,66.50
2017-08-10T16:00:14.844Z,66.90
2017-08-10T16:02:42.647Z,67.30
2017-08-10T16:05:11.239Z,69.50
2017-08-10T16:07:39.812Z,69.30
2017-08-10T16:10:08.451Z,69.00
2017-08-10T16:12:36.248Z,69.10
2017-08-10T16:15:04.886Z,68.80
2017-08-10T16:17:32.714Z,68.50
2017-08-10T16:20:00.524Z,70.00
2017-08-10T16:22:28.380Z,70.40
2017-08-10T16:24:56.173Z,70.30
2017-08-10T16:27:24.050Z,70.70
2017-08-10T16:29:52.611Z,71.60
2017-08-10T16:32:20.408Z,71.50
2017-08-10T16:34:48.235Z,71.30
2017-08-10T16:37:16.035Z,72.00
2017-08-10T16:39:43.896Z,71.30
2017-08-10T16:42:11.696Z,71.00
2017-08-10T16:44:39.496Z,71.10
2017-08-10T16:47:08.098Z,71.30
2017-08-10T16:49:35.904Z,71.30
2017-08-10T16:52:03.764Z,70.70
2017-08-10T16:54:31.571Z,71.70
2017-08-10T16:57:00.148Z,71.70
2017-08-10T16:59:27.991Z,71.50
2017-08-10T17:01:55.797Z,72.70
2017-08-10T17:04:23.686Z,72.90
2017-08-10T17:06:51.495Z,73.50
2017-08-10T17:09:19.326Z,74.50
2017-08-10T17:11:47.168Z,75.20
2017-08-10T17:14:15.020Z,76.40
2017-08-10T17:16:42.885Z,75.70
2017-08-10T17:19:10.697Z,76.40
2017-08-10T17:21:38.508Z,76.40
2017-08-10T17:24:06.353Z,76.40
2017-08-10T17:26:34.934Z,76.40
2017-08-10T17:29:03.557Z,76.20
2017-08-10T17:31:31.353Z,76.10
2017-08-10T17:33:59.164Z,76.30
2017-08-10T17:36:27.012Z,76.80
2017-08-10T17:38:55.609Z,77.90
2017-08-10T17:41:23.487Z,77.80
2017-08-10T17:43:51.308Z,77.90
2017-08-10T17:46:19.867Z,80.20
2017-08-10T17:48:47.700Z,80.30
2017-08-10T17:51:15.498Z,80.50
2017-08-10T17:53:43.349Z,81.80
2017-08-10T17:56:11.141Z,83.10
2017-08-10T17:58:39.707Z,84.30
2017-08-10T18:01:07.547Z,84.30
2017-08-10T18:03:35.353Z,81.70
2017-08-10T18:06:03.991Z,79.30
2017-08-10T18:08:31.784Z,79.30
2017-08-10T18:10:59.576Z,79.30
2017-08-10T18:13:27.406Z,79.80
2017-08-10T18:15:55.196Z,80.10
2017-08-10T18:18:23.087Z,80.40
2017-08-10T18:20:50.884Z,81.00
2017-08-10T18:23:18.700Z,81.50
2017-08-10T18:25:46.528Z,81.90
2017-08-10T18:28:15.084Z,83.10
2017-08-10T18:30:42.929Z,83.00
2017-08-10T18:33:10.715Z,83.40
2017-08-10T18:35:38.510Z,83.60
2017-08-10T18:38:06.357Z,83.50
2017-08-10T18:40:34.159Z,83.20
2017-08-10T18:43:02.967Z,83.60
2017-08-10T18:45:30.827Z,83.80
2017-08-10T18:47:58.622Z,84.20
2017-08-10T18:50:26.463Z,84.40
2017-08-10T18:52:54.296Z,84.70
2017-08-10T18:55:22.157Z,84.70
2017-08-10T18:57:49.965Z,84.60
2017-08-10T19:00:17.783Z,85.20
2017-08-10T19:02:45.624Z,85.60
2017-08-10T19:05:14.215Z,85.90
2017-08-10T19:07:42.103Z,86.00
2017-08-10T19:10:09.913Z,86.50
2017-08-10T19:12:37.725Z,86.70
2017-08-10T19:15:05.596Z,87.10
2017-08-10T19:17:33.408Z,87.20
2017-08-10T19:20:02.080Z,87.50
2017-08-10T19:22:29.891Z,87.50
2017-08-10T19:24:57.707Z,88.00
2017-08-10T19:27:25.539Z,88.30
2017-08-10T19:29:53.349Z,88.20
2017-08-10T19:32:21.999Z,89.30
2017-08-10T19:34:49.806Z,89.20
2017-08-10T19:37:17.620Z,89.40
2017-08-10T19:39:45.466Z,90.00
2017-08-10T19:42:13.278Z,90.10
2017-08-10T19:44:41.903Z,90.40
2017-08-10T19:47:09.714Z,90.30
2017-08-10T19:49:37.523Z,90.50
2017-08-10T19:52:05.391Z,91.00
2017-08-10T19:54:33.220Z,91.00
2017-08-10T19:57:01.096Z,91.00
2017-08-10T19:59:28.902Z,91.20
2017-08-10T20:01:56.702Z,91.30
2017-08-10T20:04:24.560Z,91.30
2017-08-10T20:06:52.368Z,91.50
2017-08-10T20:09:20.233Z,91.50
2017-08-10T20:11:48.073Z,91.70
2017-08-10T20:14:15.885Z,91.70
2017-08-10T20:16:43.723Z,91.60
2017-08-10T20:19:11.526Z,91.80
2017-08-10T20:21:39.388Z,92.00
2017-08-10T20:24:07.195Z,92.00
2017-08-10T20:26:34.998Z,92.10
2017-08-10T20:29:02.845Z,92.30
2017-08-10T20:31:30.656Z,92.30
2017-08-10T20:33:58.515Z,92.40
2017-08-10T20:36:26.315Z,92.30
2017-08-10T20:38:54.140Z,92.40
2017-08-10T20:41:21.975Z,92.50
2017-08-10T20:43:49.797Z,92.70
2017-08-10T20:46:17.647Z,92.60
2017-08-10T20:48:46.240Z,92.90
2017-08-10T20:51:14.116Z,92.80
2017-08-10T20:53:41.965Z,93.00
2017-08-10T20:56:09.799Z,93.00
2017-08-10T20:58:37.670Z,93.20
2017-08-10T21:01:06.236Z,93.20
2017-08-10T21:03:34.068Z,93.20
2017-08-10T21:06:01.905Z,93.30
2017-08-10T21:08:29.727Z,93.50
2017-08-10T21:10:57.687Z,93.70
2017-08-10T21:13:25.512Z,93.90
2017-08-10T21:15:53.383Z,93.90
2017-08-10T21:18:21.224Z,93.90
2017-08-10T21:20:49.052Z,94.30
2017-08-10T21:23:16.908Z,94.20
2017-08-10T21:25:44.712Z,94.20
2017-08-10T21:28:12.524Z,94.40
2017-08-10T21:30:40.416Z,94.40
2017-08-10T21:33:08.361Z,94.50
2017-08-10T21:35:36.225Z,94.60
2017-08-10T21:38:04.036Z,94.70
2017-08-10T21:40:31.839Z,94.90
2017-08-10T21:43:00.728Z,95.10
2017-08-10T21:45:28.614Z,95.10
2017-08-10T21:47:56.472Z,95.30
2017-08-10T21:50:24.275Z,95.40
2017-08-10T21:52:52.087Z,95.40
2017-08-10T21:55:19.927Z,95.60
2017-08-10T21:57:47.742Z,95.70
2017-08-10T22:00:16.455Z,95.80
2017-08-10T22:02:44.281Z,95.80
2017-08-10T22:05:12.859Z,95.90
2017-08-10T22:07:41.459Z,96.10
2017-08-10T22:10:10.070Z,96.10
2017-08-10T22:12:38.032Z,96.00
2017-08-10T22:15:05.845Z,96.00
2017-08-10T22:17:33.666Z,95.80
2017-08-10T22:20:01.540Z,96.10
2017-08-10T22:22:29.373Z,96.10
2017-08-10T22:24:57.231Z,95.70
2017-08-10T22:27:25.035Z,95.80
2017-08-10T22:29:52.842Z,95.50
2017-08-10T22:32:22.227Z,95.50
2017-08-10T22:34:50.031Z,95.50
2017-08-10T22:37:17.904Z,95.70
2017-08-10T22:39:45.699Z,95.60
2017-08-10T22:42:13.525Z,95.40
2017-08-10T22:44:41.359Z,95.30
2017-08-10T22:47:09.182Z,95.50
2017-08-10T22:49:37.036Z,95.20
2017-08-10T22:52:04.848Z,95.20
2017-08-10T22:54:33.421Z,94.90
2017-08-10T22:57:02.039Z,95.10
2017-08-10T22:59:29.835Z,95.10
2017-08-10T23:01:57.704Z,95.20
2017-08-10T23:04:25.518Z,95.20
2017-08-10T23:06:53.324Z,95.20
2017-08-10T23:09:21.184Z,95.20
2017-08-10T23:11:48.991Z,95.40
2017-08-10T23:14:17.636Z,95.80
2017-08-10T23:16:45.459Z,95.70
2017-08-10T23:19:13.256Z,95.80
2017-08-10T23:21:41.083Z,95.50
2017-08-10T23:24:08.875Z,95.70
2017-08-10T23:26:36.731Z,96.00
2017-08-10T23:29:04.519Z,96.00
2017-08-10T23:31:32.319Z,96.30
2017-08-10T23:34:00.155Z,96.00
2017-08-10T23:36:27.956Z,96.00
2017-08-10T23:38:55.823Z,96.30
2017-08-10T23:41:23.630Z,95.70
2017-08-10T23:43:51.429Z,96.00
2017-08-10T23:46:19.274Z,95.50
2017-08-10T23:48:47.835Z,98.10
2017-08-10T23:51:15.694Z,97.80
2017-08-10T23:53:43.486Z,99.90
2017-08-10T23:56:12.054Z,99.90
2017-08-10T23:58:39.887Z,99.90
